Potomac, IL (61865)

4:37 AM CST on December 05, 2016 (GMT -0600)
Pilot Twp | | Change Station

Elev 738 ft 40.26 °N, 87.88 °W | Updated 10 minutes ago

Overcast
Overcast
32.4 °F
Feels Like 32 °F
N
3.0
Wind Variable Wind from WNW
Gusts 7.0 mph

Today
High -- | Low -- °F
--% Chance of Precip.
Yesterday
High -- | Low -- °F
Precip. -- in
Pressure 30.02 in
Visibility 10.0 miles
Clouds Overcast 700 ft
Windchill 32 °F
Dew Point 31 °F
Humidity 93%
Rainfall 0.00 in
Snow Depth Not available.
6:59 AM 4:24 PM
Waxing Crescent, 30% visible
METAR KDNV 051015Z AUTO 27005KT 10SM OVC007 00/00 A3002 RMK AO2 T00001005
Pressure 30.02 in
Visibility 10.0 miles
Clouds Overcast 700 ft
Windchill 32 °F
Dew Point 31 °F
Humidity 93%
Rainfall 0.00 in
Snow Depth Not available.
6:59 AM 4:24 PM
Waxing Crescent, 30% visible
METAR KDNV 051015Z AUTO 27005KT 10SM OVC007 00/00 A3002 RMK AO2 T00001005

10-Day Weather Forecast

Almanac

Astronomy

Dec. 05, 2016 Rise Set
Actual Time
Civil Twilight
Nautical Twilight
Astronomical Twilight
Moon
Length of Visible Light
Length of Day
Tomorrow will be .
, % of the Moon is Illuminated

Today's Extremes

State Highs State Lows

Community

WunderPhotos

Upload Photos

1,955,777 photos uploaded!

WunderBlog® & News

Nearby

Air Quality

  Air Quality AQ Index Pollutant
Not available.

Snow Depth

Station Depth Elevation

Earthquake Activity

City Distance Mag. Time & Date
Minimum magnitude displayed is 2.5.

Coastal Water Temperatures

Place Temperature

Stations

Nearby Weather Stations

Station Location Temp. Windchill Dew Point Humidity Wind Precip. Elev Updated Type
                   

Watches & Warnings

There are currently no watches in effect.